sensor_id;sensor_type;location;lat;lon;timestamp;temperature;humidity
12948;DHT22;6539;49.476;8.484;2023-05-15T00:01:46;16.70;99.90
12948;DHT22;6539;49.476;8.484;2023-05-15T00:04:17;16.70;99.90
12948;DHT22;6539;49.476;8.484;2023-05-15T00:06:42;16.60;99.90
12948;DHT22;6539;49.476;8.484;2023-05-15T00:09:10;16.50;99.90
12948;DHT22;6539;49.476;8.484;2023-05-15T00:11:39;16.10;99.90
12948;DHT22;6539;49.476;8.484;2023-05-15T00:14:07;16.40;99.90
12948;DHT22;6539;49.476;8.484;2023-05-15T00:16:32;16.40;99.90
12948;DHT22;6539;49.476;8.484;2023-05-15T00:19:00;16.40;99.90
12948;DHT22;6539;49.476;8.484;2023-05-15T00:21:26;16.30;99.90
12948;DHT22;6539;49.476;8.484;2023-05-15T00:23:52;16.30;99.90
12948;DHT22;6539;49.476;8.484;2023-05-15T00:26:18;16.30;99.90
12948;DHT22;6539;49.476;8.484;2023-05-15T00:28:47;16.30;99.90
12948;DHT22;6539;49.476;8.484;2023-05-15T00:31:15;16.30;99.90
12948;DHT22;6539;49.476;8.484;2023-05-15T00:33:41;16.30;99.90
12948;DHT22;6539;49.476;8.484;2023-05-15T00:36:09;16.30;99.90
12948;DHT22;6539;49.476;8.484;2023-05-15T00:38:35;16.20;99.90
12948;DHT22;6539;49.476;8.484;2023-05-15T00:41:01;16.30;99.90
12948;DHT22;6539;49.476;8.484;2023-05-15T00:43:27;16.30;99.90
12948;DHT22;6539;49.476;8.484;2023-05-15T00:45:54;16.30;99.90
12948;DHT22;6539;49.476;8.484;2023-05-15T00:48:22;16.30;99.90
12948;DHT22;6539;49.476;8.484;2023-05-15T00:50:51;16.30;99.90
12948;DHT22;6539;49.476;8.484;2023-05-15T00:53:25;16.30;99.90
12948;DHT22;6539;49.476;8.484;2023-05-15T00:55:53;16.30;99.90
12948;DHT22;6539;49.476;8.484;2023-05-15T00:58:26;16.30;99.90
12948;DHT22;6539;49.476;8.484;2023-05-15T01:00:53;16.30;99.90
12948;DHT22;6539;49.476;8.484;2023-05-15T01:03:21;16.30;99.90
12948;DHT22;6539;49.476;8.484;2023-05-15T01:05:48;16.40;99.90
12948;DHT22;6539;49.476;8.484;2023-05-15T01:08:36;16.30;99.90
12948;DHT22;6539;49.476;8.484;2023-05-15T01:11:10;16.30;99.90
12948;DHT22;6539;49.476;8.484;2023-05-15T01:13:37;16.30;99.90
12948;DHT22;6539;49.476;8.484;2023-05-15T01:16:03;16.20;99.90
12948;DHT22;6539;49.476;8.484;2023-05-15T01:18:29;16.20;99.90
12948;DHT22;6539;49.476;8.484;2023-05-15T01:27:20;16.20;99.90
12948;DHT22;6539;49.476;8.484;2023-05-15T01:35:46;16.00;99.90
12948;DHT22;6539;49.476;8.484;2023-05-15T01:38:37;15.90;99.90
12948;DHT22;6539;49.476;8.484;2023-05-15T01:41:21;15.90;99.90
12948;DHT22;6539;49.476;8.484;2023-05-15T01:44:04;15.90;99.90
12948;DHT22;6539;49.476;8.484;2023-05-15T01:46:37;15.90;99.90
12948;DHT22;6539;49.476;8.484;2023-05-15T01:49:12;15.80;99.90
12948;DHT22;6539;49.476;8.484;2023-05-15T01:51:41;15.80;99.90
12948;DHT22;6539;49.476;8.484;2023-05-15T01:54:13;15.80;99.90
12948;DHT22;6539;49.476;8.484;2023-05-15T01:56:43;15.70;99.90
12948;DHT22;6539;49.476;8.484;2023-05-15T01:59:12;15.60;99.90
12948;DHT22;6539;49.476;8.484;2023-05-15T02:01:43;15.70;99.90
12948;DHT22;6539;49.476;8.484;2023-05-15T02:04:10;15.70;99.90
12948;DHT22;6539;49.476;8.484;2023-05-15T02:06:37;15.60;99.90
12948;DHT22;6539;49.476;8.484;2023-05-15T02:09:06;15.70;99.90
12948;DHT22;6539;49.476;8.484;2023-05-15T02:11:33;15.70;99.90
12948;DHT22;6539;49.476;8.484;2023-05-15T02:14:00;15.70;99.90
12948;DHT22;6539;49.476;8.484;2023-05-15T02:16:27;15.70;99.90
12948;DHT22;6539;49.476;8.484;2023-05-15T02:18:58;15.70;99.90
12948;DHT22;6539;49.476;8.484;2023-05-15T02:21:27;15.70;99.90
12948;DHT22;6539;49.476;8.484;2023-05-15T02:23:53;15.90;99.90
12948;DHT22;6539;49.476;8.484;2023-05-15T02:26:55;15.70;99.90
12948;DHT22;6539;49.476;8.484;2023-05-15T02:29:57;15.80;99.90
12948;DHT22;6539;49.476;8.484;2023-05-15T02:35:58;15.80;99.90
12948;DHT22;6539;49.476;8.484;2023-05-15T02:38:48;15.80;99.90
12948;DHT22;6539;49.476;8.484;2023-05-15T02:41:20;15.70;99.90
12948;DHT22;6539;49.476;8.484;2023-05-15T02:43:49;15.70;99.90
12948;DHT22;6539;49.476;8.484;2023-05-15T02:46:20;16.00;99.90
12948;DHT22;6539;49.476;8.484;2023-05-15T02:48:51;15.70;99.90
12948;DHT22;6539;49.476;8.484;2023-05-15T02:51:19;15.60;99.90
12948;DHT22;6539;49.476;8.484;2023-05-15T02:53:45;15.60;99.90
12948;DHT22;6539;49.476;8.484;2023-05-15T02:56:11;15.60;99.90
12948;DHT22;6539;49.476;8.484;2023-05-15T02:58:37;15.50;99.90
12948;DHT22;6539;49.476;8.484;2023-05-15T03:01:03;15.70;99.90
12948;DHT22;6539;49.476;8.484;2023-05-15T03:03:30;15.70;99.90
12948;DHT22;6539;49.476;8.484;2023-05-15T03:05:55;15.70;99.90
12948;DHT22;6539;49.476;8.484;2023-05-15T03:08:26;15.70;99.90
12948;DHT22;6539;49.476;8.484;2023-05-15T03:10:52;15.70;99.90
12948;DHT22;6539;49.476;8.484;2023-05-15T03:13:17;15.70;99.90
12948;DHT22;6539;49.476;8.484;2023-05-15T03:15:45;15.70;99.90
12948;DHT22;6539;49.476;8.484;2023-05-15T03:18:13;15.60;99.90
12948;DHT22;6539;49.476;8.484;2023-05-15T03:20:45;15.60;99.90
12948;DHT22;6539;49.476;8.484;2023-05-15T03:23:12;15.60;99.90
12948;DHT22;6539;49.476;8.484;2023-05-15T03:25:38;15.70;99.90
12948;DHT22;6539;49.476;8.484;2023-05-15T03:28:08;15.60;99.90
12948;DHT22;6539;49.476;8.484;2023-05-15T03:30:34;15.70;99.90
12948;DHT22;6539;49.476;8.484;2023-05-15T03:33:02;15.60;99.90
12948;DHT22;6539;49.476;8.484;2023-05-15T03:35:31;15.60;99.90
12948;DHT22;6539;49.476;8.484;2023-05-15T03:37:57;15.60;99.90
12948;DHT22;6539;49.476;8.484;2023-05-15T03:40:25;15.70;99.90
12948;DHT22;6539;49.476;8.484;2023-05-15T03:42:55;15.70;99.90
12948;DHT22;6539;49.476;8.484;2023-05-15T03:45:23;15.60;99.90
12948;DHT22;6539;49.476;8.484;2023-05-15T03:47:49;15.60;99.90
12948;DHT22;6539;49.476;8.484;2023-05-15T03:50:15;15.60;99.90
12948;DHT22;6539;49.476;8.484;2023-05-15T03:52:41;15.60;99.90
12948;DHT22;6539;49.476;8.484;2023-05-15T03:55:07;15.60;99.90
12948;DHT22;6539;49.476;8.484;2023-05-15T03:57:35;15.50;99.90
12948;DHT22;6539;49.476;8.484;2023-05-15T04:00:06;15.50;99.90
12948;DHT22;6539;49.476;8.484;2023-05-15T04:02:35;15.50;99.90
12948;DHT22;6539;49.476;8.484;2023-05-15T04:05:05;15.50;99.90
12948;DHT22;6539;49.476;8.484;2023-05-15T04:07:33;15.50;99.90
12948;DHT22;6539;49.476;8.484;2023-05-15T04:10:04;15.40;99.90
12948;DHT22;6539;49.476;8.484;2023-05-15T04:12:34;15.20;99.90
12948;DHT22;6539;49.476;8.484;2023-05-15T04:15:17;15.20;99.90
12948;DHT22;6539;49.476;8.484;2023-05-15T04:17:55;15.20;99.90
12948;DHT22;6539;49.476;8.484;2023-05-15T04:20:25;15.30;99.90
12948;DHT22;6539;49.476;8.484;2023-05-15T04:22:51;15.30;99.90
12948;DHT22;6539;49.476;8.484;2023-05-15T04:25:18;15.30;99.90
12948;DHT22;6539;49.476;8.484;2023-05-15T04:27:46;15.20;99.90
12948;DHT22;6539;49.476;8.484;2023-05-15T04:30:13;15.20;99.90
12948;DHT22;6539;49.476;8.484;2023-05-15T04:32:39;15.30;99.90
12948;DHT22;6539;49.476;8.484;2023-05-15T04:35:06;15.30;99.90
12948;DHT22;6539;49.476;8.484;2023-05-15T04:37:35;15.30;99.90
12948;DHT22;6539;49.476;8.484;2023-05-15T04:40:04;15.20;99.90
12948;DHT22;6539;49.476;8.484;2023-05-15T04:42:37;15.30;99.90
12948;DHT22;6539;49.476;8.484;2023-05-15T04:45:05;15.30;99.90
12948;DHT22;6539;49.476;8.484;2023-05-15T04:47:35;15.20;99.90
12948;DHT22;6539;49.476;8.484;2023-05-15T04:50:01;15.30;99.90
12948;DHT22;6539;49.476;8.484;2023-05-15T04:52:27;15.20;99.90
12948;DHT22;6539;49.476;8.484;2023-05-15T04:54:56;15.30;99.90
12948;DHT22;6539;49.476;8.484;2023-05-15T04:57:22;15.20;99.90
12948;DHT22;6539;49.476;8.484;2023-05-15T04:59:48;15.30;99.90
12948;DHT22;6539;49.476;8.484;2023-05-15T05:02:22;15.30;99.90
12948;DHT22;6539;49.476;8.484;2023-05-15T05:04:50;15.30;99.90
12948;DHT22;6539;49.476;8.484;2023-05-15T05:07:19;15.40;99.90
12948;DHT22;6539;49.476;8.484;2023-05-15T05:09:44;15.40;99.90
12948;DHT22;6539;49.476;8.484;2023-05-15T05:12:10;15.50;99.90
12948;DHT22;6539;49.476;8.484;2023-05-15T05:14:36;15.60;99.90
12948;DHT22;6539;49.476;8.484;2023-05-15T05:17:04;15.70;99.90
12948;DHT22;6539;49.476;8.484;2023-05-15T05:19:33;15.80;99.90
12948;DHT22;6539;49.476;8.484;2023-05-15T05:22:06;15.90;99.90
12948;DHT22;6539;49.476;8.484;2023-05-15T05:24:32;15.90;99.90
12948;DHT22;6539;49.476;8.484;2023-05-15T05:27:00;15.90;99.90
12948;DHT22;6539;49.476;8.484;2023-05-15T05:29:26;16.00;99.90
12948;DHT22;6539;49.476;8.484;2023-05-15T05:31:51;16.00;99.90
12948;DHT22;6539;49.476;8.484;2023-05-15T05:34:18;16.10;99.90
12948;DHT22;6539;49.476;8.484;2023-05-15T05:36:44;16.20;99.90
12948;DHT22;6539;49.476;8.484;2023-05-15T05:39:10;16.20;99.90
12948;DHT22;6539;49.476;8.484;2023-05-15T05:41:38;16.20;99.90
12948;DHT22;6539;49.476;8.484;2023-05-15T05:44:03;16.10;99.90
12948;DHT22;6539;49.476;8.484;2023-05-15T05:46:32;16.20;99.90
12948;DHT22;6539;49.476;8.484;2023-05-15T05:49:01;16.30;99.90
12948;DHT22;6539;49.476;8.484;2023-05-15T05:51:30;16.30;99.90
12948;DHT22;6539;49.476;8.484;2023-05-15T05:54:03;16.50;99.90
12948;DHT22;6539;49.476;8.484;2023-05-15T05:56:29;16.60;99.90
12948;DHT22;6539;49.476;8.484;2023-05-15T05:58:58;16.70;99.90
12948;DHT22;6539;49.476;8.484;2023-05-15T06:01:26;16.80;99.90
12948;DHT22;6539;49.476;8.484;2023-05-15T06:03:52;16.80;99.90
12948;DHT22;6539;49.476;8.484;2023-05-15T06:06:20;17.00;99.90
12948;DHT22;6539;49.476;8.484;2023-05-15T06:08:46;16.80;99.90
12948;DHT22;6539;49.476;8.484;2023-05-15T06:11:12;16.80;99.90
12948;DHT22;6539;49.476;8.484;2023-05-15T06:13:38;16.80;99.90
12948;DHT22;6539;49.476;8.484;2023-05-15T06:16:05;16.90;99.90
12948;DHT22;6539;49.476;8.484;2023-05-15T06:18:35;17.10;99.90
12948;DHT22;6539;49.476;8.484;2023-05-15T06:21:03;17.20;99.90
12948;DHT22;6539;49.476;8.484;2023-05-15T06:23:33;17.30;99.90
12948;DHT22;6539;49.476;8.484;2023-05-15T06:25:59;17.70;99.90
12948;DHT22;6539;49.476;8.484;2023-05-15T06:28:27;17.80;99.90
12948;DHT22;6539;49.476;8.484;2023-05-15T06:30:53;18.10;99.90
12948;DHT22;6539;49.476;8.484;2023-05-15T06:33:19;18.10;99.90
12948;DHT22;6539;49.476;8.484;2023-05-15T06:35:48;18.30;99.90
12948;DHT22;6539;49.476;8.484;2023-05-15T06:38:17;18.50;99.90
12948;DHT22;6539;49.476;8.484;2023-05-15T06:40:43;18.70;99.90
12948;DHT22;6539;49.476;8.484;2023-05-15T06:43:14;19.50;99.90
12948;DHT22;6539;49.476;8.484;2023-05-15T06:45:43;19.50;99.90
12948;DHT22;6539;49.476;8.484;2023-05-15T06:48:13;19.30;99.90
12948;DHT22;6539;49.476;8.484;2023-05-15T06:50:41;19.20;99.90
12948;DHT22;6539;49.476;8.484;2023-05-15T06:53:07;19.40;99.90
12948;DHT22;6539;49.476;8.484;2023-05-15T06:55:33;19.80;99.90
12948;DHT22;6539;49.476;8.484;2023-05-15T06:58:00;19.70;99.90
12948;DHT22;6539;49.476;8.484;2023-05-15T07:00:26;19.60;99.90
12948;DHT22;6539;49.476;8.484;2023-05-15T07:02:52;19.60;99.90
12948;DHT22;6539;49.476;8.484;2023-05-15T07:05:18;19.60;99.90
12948;DHT22;6539;49.476;8.484;2023-05-15T07:07:43;19.90;99.90
12948;DHT22;6539;49.476;8.484;2023-05-15T07:10:11;20.10;99.90
12948;DHT22;6539;49.476;8.484;2023-05-15T07:12:39;20.60;99.90
12948;DHT22;6539;49.476;8.484;2023-05-15T07:15:05;20.50;99.90
12948;DHT22;6539;49.476;8.484;2023-05-15T07:17:32;20.80;99.90
12948;DHT22;6539;49.476;8.484;2023-05-15T07:19:58;20.90;99.90
12948;DHT22;6539;49.476;8.484;2023-05-15T07:22:26;20.50;99.90
12948;DHT22;6539;49.476;8.484;2023-05-15T07:24:54;20.10;99.90
12948;DHT22;6539;49.476;8.484;2023-05-15T07:27:22;20.20;99.90
12948;DHT22;6539;49.476;8.484;2023-05-15T07:29:48;20.10;99.90
12948;DHT22;6539;49.476;8.484;2023-05-15T07:32:14;20.10;99.90
12948;DHT22;6539;49.476;8.484;2023-05-15T07:34:40;20.40;99.90
12948;DHT22;6539;49.476;8.484;2023-05-15T07:37:09;20.70;99.90
12948;DHT22;6539;49.476;8.484;2023-05-15T07:39:35;21.00;99.90
12948;DHT22;6539;49.476;8.484;2023-05-15T07:42:00;21.00;99.90
12948;DHT22;6539;49.476;8.484;2023-05-15T07:44:28;21.00;99.90
12948;DHT22;6539;49.476;8.484;2023-05-15T07:46:57;20.90;99.90
12948;DHT22;6539;49.476;8.484;2023-05-15T07:49:23;20.90;99.90
12948;DHT22;6539;49.476;8.484;2023-05-15T07:51:49;21.00;99.90
12948;DHT22;6539;49.476;8.484;2023-05-15T07:54:15;21.30;99.90
12948;DHT22;6539;49.476;8.484;2023-05-15T07:56:43;21.50;99.90
12948;DHT22;6539;49.476;8.484;2023-05-15T07:59:09;21.60;99.90
12948;DHT22;6539;49.476;8.484;2023-05-15T08:01:34;21.90;99.90
12948;DHT22;6539;49.476;8.484;2023-05-15T08:04:00;22.00;99.90
12948;DHT22;6539;49.476;8.484;2023-05-15T08:06:26;22.00;99.90
12948;DHT22;6539;49.476;8.484;2023-05-15T08:08:52;22.00;99.90
12948;DHT22;6539;49.476;8.484;2023-05-15T08:11:23;22.10;99.90
12948;DHT22;6539;49.476;8.484;2023-05-15T08:13:48;22.20;99.90
12948;DHT22;6539;49.476;8.484;2023-05-15T08:16:17;22.30;99.90
12948;DHT22;6539;49.476;8.484;2023-05-15T08:18:42;22.40;99.90
12948;DHT22;6539;49.476;8.484;2023-05-15T08:21:08;22.70;99.90
12948;DHT22;6539;49.476;8.484;2023-05-15T08:23:35;23.00;99.90
12948;DHT22;6539;49.476;8.484;2023-05-15T08:26:01;23.20;99.90
12948;DHT22;6539;49.476;8.484;2023-05-15T08:28:32;23.30;99.90
12948;DHT22;6539;49.476;8.484;2023-05-15T08:30:58;23.90;99.90
12948;DHT22;6539;49.476;8.484;2023-05-15T08:33:23;24.10;99.90
12948;DHT22;6539;49.476;8.484;2023-05-15T08:35:49;23.90;99.90
12948;DHT22;6539;49.476;8.484;2023-05-15T08:38:16;24.00;99.90
12948;DHT22;6539;49.476;8.484;2023-05-15T08:40:45;24.00;99.90
12948;DHT22;6539;49.476;8.484;2023-05-15T08:43:20;23.90;99.90
12948;DHT22;6539;49.476;8.484;2023-05-15T08:45:49;23.70;99.90
12948;DHT22;6539;49.476;8.484;2023-05-15T08:48:23;24.00;99.90
12948;DHT22;6539;49.476;8.484;2023-05-15T08:50:53;24.10;99.90
12948;DHT22;6539;49.476;8.484;2023-05-15T08:53:22;24.00;99.90
12948;DHT22;6539;49.476;8.484;2023-05-15T08:55:49;23.90;99.90
12948;DHT22;6539;49.476;8.484;2023-05-15T08:58:15;23.90;99.90
12948;DHT22;6539;49.476;8.484;2023-05-15T09:00:41;23.80;99.90
12948;DHT22;6539;49.476;8.484;2023-05-15T09:03:13;23.60;99.90
12948;DHT22;6539;49.476;8.484;2023-05-15T09:05:40;23.60;99.90
12948;DHT22;6539;49.476;8.484;2023-05-15T09:08:07;23.50;99.90
12948;DHT22;6539;49.476;8.484;2023-05-15T09:10:33;23.30;99.90
12948;DHT22;6539;49.476;8.484;2023-05-15T09:13:01;23.50;99.90
12948;DHT22;6539;49.476;8.484;2023-05-15T09:15:27;23.60;99.90
12948;DHT22;6539;49.476;8.484;2023-05-15T09:17:55;23.90;99.90
12948;DHT22;6539;49.476;8.484;2023-05-15T09:20:30;24.10;99.90
12948;DHT22;6539;49.476;8.484;2023-05-15T09:23:04;24.60;99.90
12948;DHT22;6539;49.476;8.484;2023-05-15T09:25:45;24.90;99.90
12948;DHT22;6539;49.476;8.484;2023-05-15T09:28:28;25.10;99.90
12948;DHT22;6539;49.476;8.484;2023-05-15T09:31:02;25.20;99.90
12948;DHT22;6539;49.476;8.484;2023-05-15T09:33:35;25.30;99.90
12948;DHT22;6539;49.476;8.484;2023-05-15T09:36:06;25.50;99.90
12948;DHT22;6539;49.476;8.484;2023-05-15T09:38:40;25.50;99.90
12948;DHT22;6539;49.476;8.484;2023-05-15T09:41:12;25.10;99.90
12948;DHT22;6539;49.476;8.484;2023-05-15T09:43:39;25.30;99.90
12948;DHT22;6539;49.476;8.484;2023-05-15T09:46:10;24.80;99.90
12948;DHT22;6539;49.476;8.484;2023-05-15T09:48:39;24.50;99.90
12948;DHT22;6539;49.476;8.484;2023-05-15T09:51:05;24.70;99.90
12948;DHT22;6539;49.476;8.484;2023-05-15T09:53:40;24.80;99.90
12948;DHT22;6539;49.476;8.484;2023-05-15T09:56:08;24.90;99.90
12948;DHT22;6539;49.476;8.484;2023-05-15T09:58:37;24.90;99.90
12948;DHT22;6539;49.476;8.484;2023-05-15T10:01:09;25.00;99.90
12948;DHT22;6539;49.476;8.484;2023-05-15T10:03:36;25.10;99.90
12948;DHT22;6539;49.476;8.484;2023-05-15T10:06:02;25.30;99.90
12948;DHT22;6539;49.476;8.484;2023-05-15T10:08:28;25.30;99.90
12948;DHT22;6539;49.476;8.484;2023-05-15T10:10:58;25.40;99.90
12948;DHT22;6539;49.476;8.484;2023-05-15T10:13:25;25.50;99.90
12948;DHT22;6539;49.476;8.484;2023-05-15T10:15:55;25.70;99.90
12948;DHT22;6539;49.476;8.484;2023-05-15T10:18:23;25.70;99.70
12948;DHT22;6539;49.476;8.484;2023-05-15T10:20:55;25.70;99.90
12948;DHT22;6539;49.476;8.484;2023-05-15T10:23:29;25.80;99.90
12948;DHT22;6539;49.476;8.484;2023-05-15T10:26:01;25.90;99.80
12948;DHT22;6539;49.476;8.484;2023-05-15T10:28:32;25.80;99.70
12948;DHT22;6539;49.476;8.484;2023-05-15T10:31:00;25.80;99.90
12948;DHT22;6539;49.476;8.484;2023-05-15T10:33:28;25.60;99.90
12948;DHT22;6539;49.476;8.484;2023-05-15T10:35:57;24.90;99.90
12948;DHT22;6539;49.476;8.484;2023-05-15T10:38:26;25.10;99.90
12948;DHT22;6539;49.476;8.484;2023-05-15T10:40:58;25.00;99.90
12948;DHT22;6539;49.476;8.484;2023-05-15T10:43:25;25.00;99.90
12948;DHT22;6539;49.476;8.484;2023-05-15T10:45:54;25.10;99.90
12948;DHT22;6539;49.476;8.484;2023-05-15T10:48:21;25.30;99.80
12948;DHT22;6539;49.476;8.484;2023-05-15T10:50:48;25.40;99.70
12948;DHT22;6539;49.476;8.484;2023-05-15T10:53:14;25.40;99.60
12948;DHT22;6539;49.476;8.484;2023-05-15T10:55:40;25.60;99.90
12948;DHT22;6539;49.476;8.484;2023-05-15T10:58:12;25.70;99.70
12948;DHT22;6539;49.476;8.484;2023-05-15T11:00:43;25.70;99.70
12948;DHT22;6539;49.476;8.484;2023-05-15T11:03:14;25.50;98.40
12948;DHT22;6539;49.476;8.484;2023-05-15T11:06:11;25.10;98.60
12948;DHT22;6539;49.476;8.484;2023-05-15T11:08:39;24.70;98.60
12948;DHT22;6539;49.476;8.484;2023-05-15T11:11:07;24.70;99.90
12948;DHT22;6539;49.476;8.484;2023-05-15T11:24:54;25.90;97.40
12948;DHT22;6539;49.476;8.484;2023-05-15T11:27:32;26.00;95.60
12948;DHT22;6539;49.476;8.484;2023-05-15T11:30:16;26.10;93.20
12948;DHT22;6539;49.476;8.484;2023-05-15T11:33:00;26.10;94.40
12948;DHT22;6539;49.476;8.484;2023-05-15T11:35:39;26.10;92.20
12948;DHT22;6539;49.476;8.484;2023-05-15T11:38:15;25.90;90.70
12948;DHT22;6539;49.476;8.484;2023-05-15T11:43:34;26.10;90.50
12948;DHT22;6539;49.476;8.484;2023-05-15T11:48:34;26.20;89.20
12948;DHT22;6539;49.476;8.484;2023-05-15T11:51:05;26.20;89.00
12948;DHT22;6539;49.476;8.484;2023-05-15T11:53:42;26.20;88.80
12948;DHT22;6539;49.476;8.484;2023-05-15T11:56:17;25.50;92.00
12948;DHT22;6539;49.476;8.484;2023-05-15T11:58:50;25.60;90.50
12948;DHT22;6539;49.476;8.484;2023-05-15T12:01:19;25.50;87.10
12948;DHT22;6539;49.476;8.484;2023-05-15T12:03:48;25.50;87.40
12948;DHT22;6539;49.476;8.484;2023-05-15T12:06:14;25.70;92.70
12948;DHT22;6539;49.476;8.484;2023-05-15T12:08:43;25.70;90.90
12948;DHT22;6539;49.476;8.484;2023-05-15T12:11:11;25.80;90.80
12948;DHT22;6539;49.476;8.484;2023-05-15T12:13:39;26.00;90.00
12948;DHT22;6539;49.476;8.484;2023-05-15T12:16:07;26.20;90.50
12948;DHT22;6539;49.476;8.484;2023-05-15T12:18:33;26.20;91.00
12948;DHT22;6539;49.476;8.484;2023-05-15T12:20:59;26.10;89.90
12948;DHT22;6539;49.476;8.484;2023-05-15T12:23:26;26.10;90.30
12948;DHT22;6539;49.476;8.484;2023-05-15T12:25:58;26.10;90.70
12948;DHT22;6539;49.476;8.484;2023-05-15T12:28:28;25.90;90.20
12948;DHT22;6539;49.476;8.484;2023-05-15T12:30:58;25.70;89.50
12948;DHT22;6539;49.476;8.484;2023-05-15T12:33:29;25.70;92.20
12948;DHT22;6539;49.476;8.484;2023-05-15T12:35:57;25.60;90.30
12948;DHT22;6539;49.476;8.484;2023-05-15T12:38:25;25.40;91.20
12948;DHT22;6539;49.476;8.484;2023-05-15T12:40:56;25.20;91.90
12948;DHT22;6539;49.476;8.484;2023-05-15T12:43:25;25.00;92.20
12948;DHT22;6539;49.476;8.484;2023-05-15T12:45:55;24.80;92.70
12948;DHT22;6539;49.476;8.484;2023-05-15T12:48:21;24.80;93.20
12948;DHT22;6539;49.476;8.484;2023-05-15T12:51:02;24.60;93.30
12948;DHT22;6539;49.476;8.484;2023-05-15T12:53:31;24.50;93.70
12948;DHT22;6539;49.476;8.484;2023-05-15T12:55:59;24.30;94.20
12948;DHT22;6539;49.476;8.484;2023-05-15T12:58:29;24.30;94.50
12948;DHT22;6539;49.476;8.484;2023-05-15T13:00:57;24.50;95.90
12948;DHT22;6539;49.476;8.484;2023-05-15T13:03:23;24.30;94.00
12948;DHT22;6539;49.476;8.484;2023-05-15T13:05:50;24.10;93.50
12948;DHT22;6539;49.476;8.484;2023-05-15T13:08:17;24.10;94.00
12948;DHT22;6539;49.476;8.484;2023-05-15T13:10:46;24.10;94.70
12948;DHT22;6539;49.476;8.484;2023-05-15T13:13:22;24.10;94.60
12948;DHT22;6539;49.476;8.484;2023-05-15T13:15:51;24.10;95.00
12948;DHT22;6539;49.476;8.484;2023-05-15T13:18:20;24.00;96.00
12948;DHT22;6539;49.476;8.484;2023-05-15T13:20:51;23.80;96.70
12948;DHT22;6539;49.476;8.484;2023-05-15T13:23:19;23.80;97.20
12948;DHT22;6539;49.476;8.484;2023-05-15T13:25:47;23.70;97.60
12948;DHT22;6539;49.476;8.484;2023-05-15T13:28:15;23.70;97.90
12948;DHT22;6539;49.476;8.484;2023-05-15T13:30:41;23.60;98.20
12948;DHT22;6539;49.476;8.484;2023-05-15T13:33:10;23.50;98.80
12948;DHT22;6539;49.476;8.484;2023-05-15T13:35:38;23.60;98.30
12948;DHT22;6539;49.476;8.484;2023-05-15T13:38:04;23.60;97.50
12948;DHT22;6539;49.476;8.484;2023-05-15T13:40:32;23.60;97.50
12948;DHT22;6539;49.476;8.484;2023-05-15T13:43:01;23.60;97.40
12948;DHT22;6539;49.476;8.484;2023-05-15T13:45:27;23.50;98.10
12948;DHT22;6539;49.476;8.484;2023-05-15T13:47:56;23.40;98.50
12948;DHT22;6539;49.476;8.484;2023-05-15T13:50:22;23.40;99.30
12948;DHT22;6539;49.476;8.484;2023-05-15T13:52:49;23.30;99.90
12948;DHT22;6539;49.476;8.484;2023-05-15T13:55:18;23.40;99.80
12948;DHT22;6539;49.476;8.484;2023-05-15T13:57:44;23.60;99.60
12948;DHT22;6539;49.476;8.484;2023-05-15T14:00:11;23.70;99.20
12948;DHT22;6539;49.476;8.484;2023-05-15T14:02:42;23.80;98.50
12948;DHT22;6539;49.476;8.484;2023-05-15T14:05:12;23.70;98.70
12948;DHT22;6539;49.476;8.484;2023-05-15T14:07:41;23.80;98.50
12948;DHT22;6539;49.476;8.484;2023-05-15T14:10:10;23.90;98.40
12948;DHT22;6539;49.476;8.484;2023-05-15T14:12:36;24.10;98.00
12948;DHT22;6539;49.476;8.484;2023-05-15T14:15:02;24.20;97.30
12948;DHT22;6539;49.476;8.484;2023-05-15T14:17:31;24.30;97.70
12948;DHT22;6539;49.476;8.484;2023-05-15T14:19:56;24.00;96.80
12948;DHT22;6539;49.476;8.484;2023-05-15T14:22:22;24.30;95.50
12948;DHT22;6539;49.476;8.484;2023-05-15T14:24:51;24.10;95.90
12948;DHT22;6539;49.476;8.484;2023-05-15T14:27:20;24.30;95.00
12948;DHT22;6539;49.476;8.484;2023-05-15T14:29:46;24.30;94.10
12948;DHT22;6539;49.476;8.484;2023-05-15T14:32:14;24.20;93.90
12948;DHT22;6539;49.476;8.484;2023-05-15T14:34:40;24.40;93.60
12948;DHT22;6539;49.476;8.484;2023-05-15T14:37:06;24.30;92.30
12948;DHT22;6539;49.476;8.484;2023-05-15T14:39:32;24.40;92.30
12948;DHT22;6539;49.476;8.484;2023-05-15T14:41:57;24.40;93.80
12948;DHT22;6539;49.476;8.484;2023-05-15T14:44:23;24.50;94.00
12948;DHT22;6539;49.476;8.484;2023-05-15T14:47:07;24.50;93.50
12948;DHT22;6539;49.476;8.484;2023-05-15T14:49:35;24.50;94.40
12948;DHT22;6539;49.476;8.484;2023-05-15T14:52:06;24.30;94.10
12948;DHT22;6539;49.476;8.484;2023-05-15T14:54:37;24.20;93.30
12948;DHT22;6539;49.476;8.484;2023-05-15T14:57:03;24.20;91.50
12948;DHT22;6539;49.476;8.484;2023-05-15T14:59:29;24.30;92.70
12948;DHT22;6539;49.476;8.484;2023-05-15T15:01:55;24.30;92.40
12948;DHT22;6539;49.476;8.484;2023-05-15T15:04:20;24.30;91.50
12948;DHT22;6539;49.476;8.484;2023-05-15T15:06:46;24.20;91.40
12948;DHT22;6539;49.476;8.484;2023-05-15T15:09:12;24.30;93.30
12948;DHT22;6539;49.476;8.484;2023-05-15T15:11:38;24.10;91.00
12948;DHT22;6539;49.476;8.484;2023-05-15T15:14:09;23.90;91.10
12948;DHT22;6539;49.476;8.484;2023-05-15T15:16:39;23.70;92.50
12948;DHT22;6539;49.476;8.484;2023-05-15T15:19:05;23.70;93.20
12948;DHT22;6539;49.476;8.484;2023-05-15T15:21:30;23.30;94.10
12948;DHT22;6539;49.476;8.484;2023-05-15T15:23:56;23.20;94.70
12948;DHT22;6539;49.476;8.484;2023-05-15T15:26:24;22.90;95.60
12948;DHT22;6539;49.476;8.484;2023-05-15T15:28:52;22.80;96.40
12948;DHT22;6539;49.476;8.484;2023-05-15T15:31:21;22.80;96.50
12948;DHT22;6539;49.476;8.484;2023-05-15T15:33:47;22.70;96.60
12948;DHT22;6539;49.476;8.484;2023-05-15T15:36:13;22.60;96.70
12948;DHT22;6539;49.476;8.484;2023-05-15T15:38:39;22.60;97.00
12948;DHT22;6539;49.476;8.484;2023-05-15T15:41:08;22.60;97.10
12948;DHT22;6539;49.476;8.484;2023-05-15T15:43:35;22.50;97.20
12948;DHT22;6539;49.476;8.484;2023-05-15T15:46:07;22.40;97.60
12948;DHT22;6539;49.476;8.484;2023-05-15T15:48:32;22.20;99.90
12948;DHT22;6539;49.476;8.484;2023-05-15T15:50:58;22.30;98.10
12948;DHT22;6539;49.476;8.484;2023-05-15T15:53:24;22.20;98.20
12948;DHT22;6539;49.476;8.484;2023-05-15T15:55:55;22.30;98.40
12948;DHT22;6539;49.476;8.484;2023-05-15T15:58:21;22.30;98.60
12948;DHT22;6539;49.476;8.484;2023-05-15T16:00:49;22.00;99.90
12948;DHT22;6539;49.476;8.484;2023-05-15T16:03:17;22.20;98.90
12948;DHT22;6539;49.476;8.484;2023-05-15T16:05:43;22.20;99.00
12948;DHT22;6539;49.476;8.484;2023-05-15T16:08:11;22.20;99.30
12948;DHT22;6539;49.476;8.484;2023-05-15T16:10:37;22.10;99.50
12948;DHT22;6539;49.476;8.484;2023-05-15T16:13:05;22.00;99.70
12948;DHT22;6539;49.476;8.484;2023-05-15T16:17:59;22.00;99.90
12948;DHT22;6539;49.476;8.484;2023-05-15T16:20:27;22.00;99.90
12948;DHT22;6539;49.476;8.484;2023-05-15T16:22:53;21.90;99.60
12948;DHT22;6539;49.476;8.484;2023-05-15T16:25:21;21.80;99.10
12948;DHT22;6539;49.476;8.484;2023-05-15T16:27:47;21.70;98.70
12948;DHT22;6539;49.476;8.484;2023-05-15T16:30:15;21.90;99.90